createdAt,value
2023-01-02T00:01:00.301Z,95.97
2023-01-02T00:03:26.938Z,95.84
2023-01-02T00:05:54.382Z,96.07
2023-01-02T00:08:21.056Z,95.85
2023-01-02T00:10:47.808Z,95.77
2023-01-02T00:13:14.390Z,95.45
2023-01-02T00:15:40.884Z,95.53
2023-01-02T00:18:07.370Z,95.66
2023-01-02T00:20:34.464Z,95.64
2023-01-02T00:23:01.403Z,95.58
2023-01-02T00:25:28.003Z,95.76
2023-01-02T00:27:56.535Z,95.69
2023-01-02T00:30:23.270Z,96.08
2023-01-02T00:32:49.836Z,96.20
2023-01-02T00:35:16.467Z,96.28
2023-01-02T00:37:43.085Z,96.36
2023-01-02T00:40:13.755Z,96.71
2023-01-02T00:42:41.765Z,97.06
2023-01-02T00:45:10.705Z,97.01
2023-01-02T00:47:37.442Z,97.41
2023-01-02T00:50:04.757Z,97.48
2023-01-02T00:52:31.329Z,97.28
2023-01-02T00:54:57.875Z,97.50
2023-01-02T00:57:24.370Z,97.24
2023-01-02T00:59:50.842Z,97.43
2023-01-02T01:02:17.501Z,97.33
2023-01-02T01:04:44.041Z,97.51
2023-01-02T01:07:10.499Z,97.13
2023-01-02T01:09:36.968Z,97.31
2023-01-02T01:12:05.098Z,96.88
2023-01-02T01:14:32.103Z,96.82
2023-01-02T01:16:59.472Z,96.71
2023-01-02T01:19:29.742Z,96.78
2023-01-02T01:21:56.199Z,96.67
2023-01-02T01:24:22.741Z,96.73
2023-01-02T01:26:49.282Z,96.16
2023-01-02T01:29:15.829Z,96.53
2023-01-02T01:31:42.313Z,96.35
2023-01-02T01:34:11.773Z,96.32
2023-01-02T01:36:38.279Z,96.29
2023-01-02T01:39:04.782Z,96.31
2023-01-02T01:41:31.483Z,96.00
2023-01-02T01:44:00.465Z,95.78
2023-01-02T01:46:36.718Z,95.96
2023-01-02T01:49:13.756Z,95.49
2023-01-02T01:51:46.433Z,95.90
2023-01-02T01:54:16.872Z,95.51
2023-01-02T01:56:51.794Z,95.77
2023-01-02T01:59:19.242Z,95.89
2023-01-02T02:01:48.861Z,95.47
2023-01-02T02:04:18.635Z,95.64
2023-01-02T02:06:45.441Z,95.63
2023-01-02T02:09:20.496Z,95.26
2023-01-02T02:11:48.144Z,94.86
2023-01-02T02:14:14.731Z,95.12
2023-01-02T02:16:51.662Z,94.99
2023-01-02T02:19:36.715Z,94.98
2023-01-02T02:22:51.796Z,94.80
2023-01-02T02:25:33.553Z,94.35
2023-01-02T02:28:27.536Z,94.34
2023-01-02T02:31:20.848Z,94.14
2023-01-02T02:34:06.399Z,93.88
2023-01-02T02:36:38.275Z,94.17
2023-01-02T02:39:13.889Z,93.90
2023-01-02T02:42:00.543Z,93.78
2023-01-02T02:44:46.960Z,93.84
2023-01-02T02:47:16.449Z,93.25
2023-01-02T02:49:58.986Z,92.26
2023-01-02T02:52:41.468Z,91.03
2023-01-02T02:55:25.789Z,90.62
2023-01-02T02:57:53.515Z,90.26
2023-01-02T03:00:23.122Z,89.81
2023-01-02T03:02:50.173Z,88.60
2023-01-02T03:05:25.490Z,88.03
2023-01-02T03:08:15.288Z,86.92
2023-01-02T03:10:58.595Z,86.23
2023-01-02T03:13:42.261Z,85.77
2023-01-02T03:16:29.171Z,84.36
2023-01-02T03:18:58.890Z,84.23
2023-01-02T03:21:33.881Z,83.63
2023-01-02T03:24:05.969Z,83.09
2023-01-02T03:26:34.994Z,82.21
2023-01-02T03:29:08.365Z,82.57
2023-01-02T03:31:39.590Z,81.96
2023-01-02T03:34:15.020Z,82.09
2023-01-02T03:36:45.105Z,81.51
2023-01-02T03:39:20.671Z,81.31
2023-01-02T03:42:00.503Z,81.18
2023-01-02T03:44:36.818Z,80.42
2023-01-02T03:47:23.436Z,80.48
2023-01-02T03:49:54.701Z,80.26
2023-01-02T03:52:25.963Z,80.53
2023-01-02T03:54:54.155Z,80.32
2023-01-02T03:57:31.623Z,80.40
2023-01-02T04:00:14.831Z,80.59
2023-01-02T04:02:57.628Z,79.58
2023-01-02T04:05:34.716Z,80.03
2023-01-02T04:08:07.781Z,80.03
2023-01-02T04:10:37.346Z,79.67
2023-01-02T04:13:12.010Z,79.34
2023-01-02T04:15:41.648Z,79.25
2023-01-02T04:18:11.038Z,79.63
2023-01-02T04:20:44.324Z,78.91
2023-01-02T04:23:16.276Z,78.68
2023-01-02T04:26:06.168Z,78.82
2023-01-02T04:28:34.502Z,78.46
2023-01-02T04:31:09.684Z,78.11
2023-01-02T04:33:49.862Z,77.87
2023-01-02T04:36:17.106Z,77.96
2023-01-02T04:38:45.252Z,78.26
2023-01-02T04:41:26.864Z,77.75
2023-01-02T04:43:54.708Z,77.95
2023-01-02T04:46:21.931Z,78.14
2023-01-02T04:48:48.539Z,77.73
2023-01-02T04:51:15.278Z,77.63
2023-01-02T04:53:41.807Z,77.79
2023-01-02T04:56:09.016Z,76.73
2023-01-02T04:58:35.588Z,77.66
2023-01-02T05:01:02.095Z,77.88
2023-01-02T05:03:28.683Z,77.77
2023-01-02T05:06:02.022Z,77.54
2023-01-02T05:08:29.694Z,77.13
2023-01-02T05:10:57.645Z,77.39
2023-01-02T05:13:24.107Z,77.04
2023-01-02T05:15:57.263Z,77.17
2023-01-02T05:18:23.886Z,76.90
2023-01-02T05:20:50.335Z,76.51
2023-01-02T05:23:36.282Z,76.34
2023-01-02T05:26:02.735Z,76.55
2023-01-02T05:28:32.529Z,75.91
2023-01-02T05:31:03.303Z,76.23
2023-01-02T05:33:29.800Z,76.18
2023-01-02T05:35:56.296Z,75.72
2023-01-02T05:38:23.400Z,76.12
2023-01-02T05:40:49.907Z,75.97
2023-01-02T05:43:16.337Z,75.91
2023-01-02T05:45:42.865Z,75.88
2023-01-02T05:48:09.306Z,75.97
2023-01-02T05:50:35.774Z,76.04
2023-01-02T05:53:02.269Z,76.48
2023-01-02T05:55:28.752Z,75.56
2023-01-02T05:57:56.126Z,75.81
2023-01-02T06:00:22.607Z,76.06
2023-01-02T06:02:49.179Z,75.83
2023-01-02T06:05:15.914Z,75.89
2023-01-02T06:07:42.456Z,75.47
2023-01-02T06:10:09.181Z,75.31
2023-01-02T06:12:35.647Z,76.00
2023-01-02T06:15:02.145Z,75.51
2023-01-02T06:17:28.600Z,75.44
2023-01-02T06:19:55.100Z,75.69
2023-01-02T06:22:21.705Z,75.68
2023-01-02T06:24:48.206Z,75.41
2023-01-02T06:27:14.788Z,75.45
2023-01-02T06:29:41.275Z,75.14
2023-01-02T06:32:07.739Z,75.38
2023-01-02T06:34:34.271Z,75.40
2023-01-02T06:37:04.641Z,75.40
2023-01-02T06:39:35.899Z,75.29
2023-01-02T06:42:02.477Z,75.48
2023-01-02T06:44:29.013Z,75.71
2023-01-02T06:46:55.534Z,75.61
2023-01-02T06:49:21.983Z,75.54
2023-01-02T06:51:48.481Z,74.93
2023-01-02T06:54:14.943Z,75.15
2023-01-02T06:56:41.465Z,75.53
2023-01-02T06:59:09.348Z,75.27
2023-01-02T07:01:35.990Z,74.76
2023-01-02T07:04:02.523Z,75.14
2023-01-02T07:06:29.022Z,75.47
2023-01-02T07:08:55.502Z,75.84
2023-01-02T07:11:24.092Z,76.43
2023-01-02T07:13:53.596Z,76.09
2023-01-02T07:16:21.496Z,76.57
2023-01-02T07:18:48.641Z,76.54
2023-01-02T07:21:16.357Z,76.31
2023-01-02T07:23:42.854Z,76.31
2023-01-02T07:26:10.204Z,76.49
2023-01-02T07:28:37.373Z,76.11
2023-01-02T07:31:06.810Z,76.49
2023-01-02T07:33:33.687Z,76.64
2023-01-02T07:36:05.760Z,78.19
2023-01-02T07:38:33.129Z,78.13
2023-01-02T07:40:59.917Z,78.31
2023-01-02T07:43:26.808Z,78.05
2023-01-02T07:45:53.416Z,77.63
2023-01-02T07:48:20.089Z,77.71
2023-01-02T07:50:46.754Z,77.47
2023-01-02T07:53:13.610Z,77.29
2023-01-02T07:55:40.138Z,76.90
2023-01-02T07:58:06.990Z,77.50
2023-01-02T08:00:33.588Z,77.90
2023-01-02T08:03:00.716Z,77.69
2023-01-02T08:05:27.389Z,77.92
2023-01-02T08:07:53.858Z,77.17
2023-01-02T08:10:20.364Z,77.31
2023-01-02T08:12:46.937Z,76.87
2023-01-02T08:15:13.431Z,77.41
2023-01-02T08:17:41.500Z,76.76
2023-01-02T08:20:09.288Z,76.87
2023-01-02T08:22:35.985Z,76.85
2023-01-02T08:25:02.811Z,77.33
2023-01-02T08:27:29.375Z,77.59
2023-01-02T08:29:56.038Z,77.44
2023-01-02T08:32:22.705Z,77.28
2023-01-02T08:34:49.172Z,77.76
2023-01-02T08:37:15.819Z,77.66
2023-01-02T08:39:42.333Z,77.38
2023-01-02T08:42:09.229Z,76.38
2023-01-02T08:44:37.939Z,75.93
2023-01-02T08:47:05.302Z,76.95
2023-01-02T08:49:31.768Z,75.64
2023-01-02T08:51:58.394Z,75.70
2023-01-02T08:54:24.952Z,75.66
2023-01-02T08:56:51.531Z,75.55
2023-01-02T08:59:18.148Z,74.90
2023-01-02T09:01:44.807Z,74.97
2023-01-02T09:04:13.350Z,75.39
2023-01-02T09:06:41.447Z,75.08
2023-01-02T09:09:11.982Z,75.29
2023-01-02T09:11:44.332Z,75.25
2023-01-02T09:14:10.881Z,75.21
2023-01-02T09:16:37.556Z,75.47
2023-01-02T09:19:04.262Z,74.53
2023-01-02T09:21:30.840Z,74.94
2023-01-02T09:23:57.665Z,75.43
2023-01-02T09:26:25.261Z,75.13
2023-01-02T09:28:51.812Z,75.34
2023-01-02T09:31:18.753Z,75.61
2023-01-02T09:33:46.468Z,75.64
2023-01-02T09:36:15.505Z,75.17
2023-01-02T09:38:42.614Z,74.88
2023-01-02T09:41:28.600Z,74.48
2023-01-02T09:44:03.671Z,74.88
2023-01-02T09:46:55.848Z,74.61
2023-01-02T09:49:27.796Z,74.34
2023-01-02T09:51:54.407Z,74.27
2023-01-02T09:54:26.678Z,74.09
2023-01-02T09:57:18.605Z,73.97
2023-01-02T09:59:52.398Z,73.50
2023-01-02T10:03:04.180Z,73.09
2023-01-02T10:05:58.810Z,72.59
2023-01-02T10:08:37.236Z,73.25
2023-01-02T10:11:14.203Z,72.27
2023-01-02T10:14:20.756Z,72.06
2023-01-02T10:16:38.125Z,71.99
2023-01-02T10:19:12.407Z,72.03
2023-01-02T10:21:40.636Z,71.21
2023-01-02T10:24:17.926Z,70.70
2023-01-02T10:26:49.537Z,71.03
2023-01-02T10:29:27.377Z,71.15
2023-01-02T10:32:05.568Z,70.49
2023-01-02T10:34:43.209Z,70.72
2023-01-02T10:37:15.571Z,70.47
2023-01-02T10:39:44.417Z,71.09
2023-01-02T10:42:14.082Z,69.75
2023-01-02T10:44:43.458Z,69.94
2023-01-02T10:47:35.918Z,70.04
2023-01-02T10:50:06.454Z,70.17
2023-01-02T10:52:34.164Z,69.95
2023-01-02T10:55:01.605Z,69.32
2023-01-02T10:57:41.111Z,69.41
2023-01-02T11:00:28.312Z,69.74
2023-01-02T11:03:00.678Z,69.62
2023-01-02T11:05:30.245Z,69.57
2023-01-02T11:07:58.343Z,69.54
2023-01-02T11:10:43.898Z,69.28
2023-01-02T11:13:16.040Z,69.38
2023-01-02T11:15:48.045Z,69.59
2023-01-02T11:18:22.728Z,69.80
2023-01-02T11:20:56.987Z,69.97
2023-01-02T11:23:26.111Z,69.81
2023-01-02T11:25:54.280Z,70.19
2023-01-02T11:28:25.411Z,73.61
2023-01-02T11:31:01.350Z,84.08
2023-01-02T11:33:31.068Z,86.81
2023-01-02T11:36:04.777Z,89.84
2023-01-02T11:38:48.027Z,89.92
2023-01-02T11:42:08.063Z,90.62
2023-01-02T11:44:47.105Z,90.64
2023-01-02T11:47:15.732Z,91.73
2023-01-02T11:49:49.024Z,91.28
2023-01-02T11:52:40.283Z,91.69
2023-01-02T11:55:10.561Z,91.18
2023-01-02T11:57:49.640Z,91.00
2023-01-02T12:00:19.329Z,90.43
2023-01-02T12:02:48.934Z,89.48
2023-01-02T12:05:32.645Z,88.98
2023-01-02T12:08:12.937Z,87.70
2023-01-02T12:11:21.839Z,87.14
2023-01-02T12:13:54.635Z,86.90
2023-01-02T12:16:44.594Z,86.55
2023-01-02T12:19:46.508Z,86.45
2023-01-02T12:22:24.925Z,86.41
2023-01-02T12:25:30.497Z,85.91
2023-01-02T12:28:24.713Z,85.75
2023-01-02T12:31:32.425Z,85.60
2023-01-02T12:34:20.887Z,85.21
2023-01-02T12:37:06.034Z,85.09
2023-01-02T12:39:50.158Z,85.16
2023-01-02T12:42:38.216Z,84.83
2023-01-02T12:45:30.662Z,85.43
2023-01-02T12:48:09.308Z,85.79
2023-01-02T12:50:51.595Z,87.27
2023-01-02T12:53:44.729Z,88.07
2023-01-02T12:56:38.620Z,87.74
2023-01-02T12:59:29.790Z,86.63
2023-01-02T13:02:10.117Z,84.59
2023-01-02T13:04:48.870Z,84.08
2023-01-02T13:07:18.177Z,84.29
2023-01-02T13:09:45.779Z,83.96
2023-01-02T13:12:19.793Z,84.37
2023-01-02T13:14:56.182Z,84.55
2023-01-02T13:17:25.738Z,84.87
2023-01-02T13:20:38.085Z,85.12
2023-01-02T13:23:27.762Z,85.38
2023-01-02T13:26:00.002Z,85.69
2023-01-02T13:28:26.819Z,86.20
2023-01-02T13:31:44.213Z,86.91
2023-01-02T13:33:54.601Z,87.53
2023-01-02T13:36:38.854Z,87.19
2023-01-02T13:39:18.381Z,86.88
2023-01-02T13:42:13.109Z,86.87
2023-01-02T13:44:44.661Z,86.34
2023-01-02T13:47:25.997Z,86.53
2023-01-02T13:50:20.060Z,86.22
2023-01-02T13:53:25.842Z,86.82
2023-01-02T13:56:09.138Z,86.33
2023-01-02T13:58:59.851Z,85.60
2023-01-02T14:02:01.468Z,85.62
2023-01-02T14:04:29.905Z,84.99
2023-01-02T14:07:25.374Z,85.47
2023-01-02T14:10:07.059Z,86.20
2023-01-02T14:12:48.434Z,86.48
2023-01-02T14:15:24.837Z,86.05
2023-01-02T14:18:06.654Z,86.04
2023-01-02T14:20:36.507Z,85.39
2023-01-02T14:23:09.202Z,85.52
2023-01-02T14:25:48.069Z,85.14
2023-01-02T14:28:24.519Z,85.36
2023-01-02T14:30:51.984Z,85.70
2023-01-02T14:33:29.355Z,85.38
2023-01-02T14:35:59.403Z,85.04
2023-01-02T14:38:30.666Z,85.44
2023-01-02T14:41:15.947Z,85.27
2023-01-02T14:43:44.789Z,85.30
2023-01-02T14:46:24.411Z,85.58
2023-01-02T14:49:25.587Z,86.19
2023-01-02T14:52:12.325Z,85.70
2023-01-02T14:54:53.601Z,85.96
2023-01-02T14:57:37.276Z,85.96
2023-01-02T15:00:14.244Z,86.03
2023-01-02T15:02:44.957Z,85.72
2023-01-02T15:05:26.602Z,86.10
2023-01-02T15:07:58.334Z,86.27
2023-01-02T15:10:25.330Z,86.22
2023-01-02T15:13:03.676Z,85.90
2023-01-02T15:15:55.925Z,86.47
2023-01-02T15:18:27.354Z,86.34
2023-01-02T15:20:56.495Z,87.60
2023-01-02T15:23:24.808Z,89.27
2023-01-02T15:25:52.581Z,90.58
2023-01-02T15:28:39.164Z,91.06
2023-01-02T15:31:14.548Z,92.90
2023-01-02T15:33:41.791Z,94.00
2023-01-02T15:36:12.590Z,94.58
2023-01-02T15:38:39.658Z,96.22
2023-01-02T15:41:06.585Z,96.71
2023-01-02T15:43:53.542Z,97.82
2023-01-02T15:46:20.688Z,98.13
2023-01-02T15:48:48.236Z,98.45
2023-01-02T15:51:20.810Z,98.32
2023-01-02T15:54:12.109Z,99.09
2023-01-02T15:56:40.065Z,99.17
2023-01-02T15:59:22.819Z,99.63
2023-01-02T16:01:49.564Z,100.00
2023-01-02T16:04:28.657Z,100.00
2023-01-02T16:06:57.380Z,100.00
2023-01-02T16:09:29.256Z,100.00
2023-01-02T16:11:59.318Z,100.00
2023-01-02T16:14:40.771Z,100.00
2023-01-02T16:17:24.372Z,100.00
2023-01-02T16:20:15.476Z,100.00
2023-01-02T16:22:49.876Z,100.00
2023-01-02T16:25:20.806Z,100.00
2023-01-02T16:28:00.588Z,100.00
2023-01-02T16:30:29.796Z,100.00
2023-01-02T16:32:57.131Z,100.00
2023-01-02T16:35:26.541Z,100.00
2023-01-02T16:38:05.325Z,100.00
2023-01-02T16:41:00.752Z,100.00
2023-01-02T16:43:20.749Z,100.00
2023-01-02T16:45:49.409Z,99.88
2023-01-02T16:48:20.399Z,100.00
2023-01-02T16:50:50.233Z,99.64
2023-01-02T16:53:24.562Z,99.57
2023-01-02T16:55:52.360Z,99.97
2023-01-02T16:58:20.120Z,100.00
2023-01-02T17:00:49.280Z,100.00
2023-01-02T17:03:26.898Z,99.75
2023-01-02T17:06:02.119Z,99.88
2023-01-02T17:08:31.691Z,99.78
2023-01-02T17:10:59.011Z,99.59
2023-01-02T17:13:26.146Z,99.74
2023-01-02T17:15:53.830Z,100.00
2023-01-02T17:18:21.024Z,100.00
2023-01-02T17:20:47.901Z,100.00
2023-01-02T17:23:14.811Z,100.00
2023-01-02T17:25:43.649Z,100.00
2023-01-02T17:28:10.904Z,100.00
2023-01-02T17:30:37.754Z,100.00
2023-01-02T17:33:04.695Z,100.00
2023-01-02T17:35:33.475Z,100.00
2023-01-02T17:38:00.125Z,100.00
2023-01-02T17:40:27.287Z,100.00
2023-01-02T17:42:54.082Z,99.74
2023-01-02T17:45:20.705Z,99.83
2023-01-02T17:48:01.197Z,99.82
2023-01-02T17:50:31.678Z,99.65
2023-01-02T17:52:58.489Z,99.15
2023-01-02T17:55:25.174Z,98.88
2023-01-02T17:57:51.748Z,99.59
2023-01-02T18:00:18.577Z,99.32
2023-01-02T18:02:45.511Z,98.86
2023-01-02T18:05:12.756Z,99.03
2023-01-02T18:07:39.322Z,99.04
2023-01-02T18:10:09.623Z,98.69
2023-01-02T18:12:39.588Z,98.99
2023-01-02T18:15:14.517Z,99.02
2023-01-02T18:17:41.560Z,97.91
2023-01-02T18:20:14.177Z,97.62
2023-01-02T18:22:48.468Z,97.24
2023-01-02T18:25:26.927Z,96.36
2023-01-02T18:28:00.368Z,95.89
2023-01-02T18:30:27.743Z,95.59
2023-01-02T18:33:02.699Z,94.79
2023-01-02T18:38:24.606Z,94.51
2023-01-02T18:40:53.125Z,94.10
2023-01-02T18:43:26.279Z,93.87
2023-01-02T18:45:56.457Z,93.41
2023-01-02T18:48:23.735Z,92.61
2023-01-02T18:50:58.069Z,91.68
2023-01-02T18:53:26.600Z,90.98
2023-01-02T18:55:59.980Z,91.14
2023-01-02T18:58:37.332Z,90.26
2023-01-02T19:01:33.568Z,89.21
2023-01-02T19:04:17.804Z,88.93
2023-01-02T19:06:52.126Z,88.57
2023-01-02T19:09:23.068Z,87.58
2023-01-02T19:12:16.516Z,88.02
2023-01-02T19:14:44.454Z,87.73
2023-01-02T19:17:23.857Z,87.55
2023-01-02T19:19:51.257Z,87.46
2023-01-02T19:22:21.147Z,87.77
2023-01-02T19:24:47.802Z,87.86
2023-01-02T19:27:26.576Z,88.20
2023-01-02T19:29:53.923Z,88.06
2023-01-02T19:32:26.796Z,88.92
2023-01-02T19:35:09.063Z,88.53
2023-01-02T19:37:45.337Z,89.23
2023-01-02T19:40:22.727Z,89.88
2023-01-02T19:42:51.109Z,89.99
2023-01-02T19:45:23.033Z,90.46
2023-01-02T19:47:50.485Z,91.18
2023-01-02T19:50:20.242Z,92.16
2023-01-02T19:52:46.900Z,92.34
2023-01-02T19:55:14.089Z,92.25
2023-01-02T19:57:40.845Z,92.78
2023-01-02T20:00:12.777Z,92.66
2023-01-02T20:02:41.250Z,92.71
2023-01-02T20:05:08.838Z,92.89
2023-01-02T20:07:35.319Z,92.99
2023-01-02T20:10:02.084Z,92.89
2023-01-02T20:12:35.043Z,93.22
2023-01-02T20:15:11.283Z,93.17
2023-01-02T20:17:39.187Z,92.95
2023-01-02T20:20:08.658Z,92.35
2023-01-02T20:22:35.385Z,91.88
2023-01-02T20:25:02.382Z,91.31
2023-01-02T20:27:28.874Z,92.16
2023-01-02T20:29:55.437Z,91.53
2023-01-02T20:32:23.393Z,92.53
2023-01-02T20:34:51.224Z,92.68
2023-01-02T20:37:21.954Z,92.03
2023-01-02T20:39:52.961Z,92.14
2023-01-02T20:42:20.754Z,91.81
2023-01-02T20:44:47.992Z,92.21
2023-01-02T20:47:14.849Z,92.63
2023-01-02T20:49:41.311Z,92.63
2023-01-02T20:52:08.613Z,92.54
2023-01-02T20:54:35.620Z,92.57
2023-01-02T20:57:02.492Z,93.08
2023-01-02T20:59:29.138Z,93.63
2023-01-02T21:01:55.814Z,95.24
2023-01-02T21:04:24.846Z,95.60
2023-01-02T21:06:57.633Z,96.14
2023-01-02T21:09:24.155Z,96.31
2023-01-02T21:11:50.753Z,97.49
2023-01-02T21:14:17.240Z,98.60
2023-01-02T21:16:43.758Z,98.97
2023-01-02T21:19:10.268Z,99.86
2023-01-02T21:21:37.079Z,100.00
2023-01-02T21:24:03.842Z,100.00
2023-01-02T21:26:30.361Z,100.00
2023-01-02T21:28:56.890Z,100.00
2023-01-02T21:31:23.608Z,100.00
2023-01-02T21:33:50.328Z,100.00
2023-01-02T21:36:17.023Z,100.00
2023-01-02T21:38:43.846Z,100.00
2023-01-02T21:41:29.183Z,100.00
2023-01-02T21:43:55.570Z,100.00
2023-01-02T21:46:22.138Z,100.00
2023-01-02T21:48:48.799Z,100.00
2023-01-02T21:51:15.265Z,100.00
2023-01-02T21:53:41.787Z,100.00
2023-01-02T21:56:08.826Z,100.00
2023-01-02T21:58:35.284Z,99.16
2023-01-02T22:01:02.131Z,97.77
2023-01-02T22:03:29.002Z,97.53
2023-01-02T22:05:55.635Z,97.53
2023-01-02T22:08:22.257Z,96.45
2023-01-02T22:10:49.573Z,95.35
2023-01-02T22:13:16.376Z,95.45
2023-01-02T22:15:43.762Z,94.93
2023-01-02T22:18:10.333Z,95.17
2023-01-02T22:20:36.931Z,94.53
2023-01-02T22:23:03.545Z,95.09
2023-01-02T22:25:31.313Z,93.81
2023-01-02T22:27:57.881Z,93.49
2023-01-02T22:30:31.482Z,92.22
2023-01-02T22:33:00.490Z,92.88
2023-01-02T22:35:27.737Z,92.31
2023-01-02T22:37:59.354Z,91.83
2023-01-02T22:40:28.240Z,92.51
2023-01-02T22:43:10.503Z,92.03
2023-01-02T22:45:42.534Z,92.79
2023-01-02T22:48:18.484Z,92.54
2023-01-02T22:50:46.987Z,92.68
2023-01-02T22:53:34.374Z,92.99
2023-01-02T22:56:02.830Z,93.40
2023-01-02T22:58:29.299Z,93.21
2023-01-02T23:01:01.238Z,93.46
2023-01-02T23:03:29.739Z,93.57
2023-01-02T23:05:56.802Z,94.03
2023-01-02T23:08:23.502Z,94.04
2023-01-02T23:10:50.110Z,93.67
2023-01-02T23:13:16.816Z,94.61
2023-01-02T23:16:03.451Z,95.18
2023-01-02T23:18:56.018Z,94.84
2023-01-02T23:21:25.053Z,95.30
2023-01-02T23:23:52.200Z,95.11
2023-01-02T23:26:19.708Z,94.70
2023-01-02T23:31:36.196Z,95.07
2023-01-02T23:34:02.827Z,94.51
2023-01-02T23:36:29.417Z,94.01
2023-01-02T23:38:55.949Z,94.16
2023-01-02T23:41:22.449Z,93.98
2023-01-02T23:43:49.055Z,94.10
2023-01-02T23:46:15.629Z,94.05
2023-01-02T23:48:42.272Z,94.53
2023-01-02T23:51:08.933Z,94.32
2023-01-02T23:53:35.579Z,94.32
2023-01-02T23:56:02.894Z,94.53
2023-01-02T23:58:29.387Z,94.57
